Terminal Aerodrome Forecast
Issued by NWS

Current Version | Previous Version | Graphics & Text | Print | Product List | Glossary On
Versions: 1 2 3 4 5 6 7 8 9 10 11 12 13 14 15 16 17 18 19 20 21
228
FTUS41 KILN 081743
TAFLUK
TAF
KLUK 081743Z 0818/0918 27007KT P6SM -RASN SCT015 OVC025
      TEMPO 0819/0821 BKN015
     FM082300 28010KT 3SM -SN BKN008 OVC015
     FM090200 28012G22KT 1SM -SN BKN008 OVC015
     FM090600 28011G19KT 5SM -SN SCT008 OVC012=

USA.gov is the U.S. government's official web portal to all federal, state and local government web resources and services.